sensor_id;sensor_type;location;lat;lon;timestamp;temperature;humidity
4840;DHT22;2434;48.486;7.964;2022-07-29T00:01:38;24.30;44.70
4840;DHT22;2434;48.486;7.964;2022-07-29T00:04:07;24.00;46.30
4840;DHT22;2434;48.486;7.964;2022-07-29T00:06:35;24.10;45.70
4840;DHT22;2434;48.486;7.964;2022-07-29T00:09:04;24.10;45.60
4840;DHT22;2434;48.486;7.964;2022-07-29T00:11:32;24.10;46.00
4840;DHT22;2434;48.486;7.964;2022-07-29T00:14:00;24.20;45.30
4840;DHT22;2434;48.486;7.964;2022-07-29T00:16:29;24.20;45.10
4840;DHT22;2434;48.486;7.964;2022-07-29T00:18:58;24.20;44.90
4840;DHT22;2434;48.486;7.964;2022-07-29T00:21:28;24.10;45.30
4840;DHT22;2434;48.486;7.964;2022-07-29T00:23:57;24.10;45.50
4840;DHT22;2434;48.486;7.964;2022-07-29T00:26:25;24.00;45.50
4840;DHT22;2434;48.486;7.964;2022-07-29T00:28:58;23.90;46.30
4840;DHT22;2434;48.486;7.964;2022-07-29T00:31:47;24.00;46.40
4840;DHT22;2434;48.486;7.964;2022-07-29T00:34:16;23.90;46.40
4840;DHT22;2434;48.486;7.964;2022-07-29T00:37:02;23.90;46.60
4840;DHT22;2434;48.486;7.964;2022-07-29T00:39:33;23.90;46.80
4840;DHT22;2434;48.486;7.964;2022-07-29T00:42:02;23.80;47.20
4840;DHT22;2434;48.486;7.964;2022-07-29T00:44:30;23.70;47.20
4840;DHT22;2434;48.486;7.964;2022-07-29T00:47:03;23.70;47.60
4840;DHT22;2434;48.486;7.964;2022-07-29T00:49:34;23.60;47.60
4840;DHT22;2434;48.486;7.964;2022-07-29T00:52:02;23.70;47.60
4840;DHT22;2434;48.486;7.964;2022-07-29T00:54:32;23.70;47.60
4840;DHT22;2434;48.486;7.964;2022-07-29T00:57:01;23.70;47.60
4840;DHT22;2434;48.486;7.964;2022-07-29T00:59:32;23.60;47.50
4840;DHT22;2434;48.486;7.964;2022-07-29T01:02:01;23.60;47.30
4840;DHT22;2434;48.486;7.964;2022-07-29T01:04:31;23.60;47.30
4840;DHT22;2434;48.486;7.964;2022-07-29T01:07:02;23.70;47.30
4840;DHT22;2434;48.486;7.964;2022-07-29T01:09:31;23.70;47.10
4840;DHT22;2434;48.486;7.964;2022-07-29T01:12:15;23.70;46.90
4840;DHT22;2434;48.486;7.964;2022-07-29T01:14:45;23.70;46.90
4840;DHT22;2434;48.486;7.964;2022-07-29T01:17:22;23.70;46.60
4840;DHT22;2434;48.486;7.964;2022-07-29T01:19:58;23.80;46.30
4840;DHT22;2434;48.486;7.964;2022-07-29T01:22:42;23.90;46.40
4840;DHT22;2434;48.486;7.964;2022-07-29T01:31:10;24.00;45.80
4840;DHT22;2434;48.486;7.964;2022-07-29T01:33:57;24.00;45.70
4840;DHT22;2434;48.486;7.964;2022-07-29T01:36:31;24.00;45.60
4840;DHT22;2434;48.486;7.964;2022-07-29T01:39:06;23.90;46.20
4840;DHT22;2434;48.486;7.964;2022-07-29T01:41:37;23.80;46.30
4840;DHT22;2434;48.486;7.964;2022-07-29T01:44:13;23.80;46.70
4840;DHT22;2434;48.486;7.964;2022-07-29T01:46:49;23.70;47.10
4840;DHT22;2434;48.486;7.964;2022-07-29T01:49:23;23.70;47.40
4840;DHT22;2434;48.486;7.964;2022-07-29T01:51:56;23.60;47.60
4840;DHT22;2434;48.486;7.964;2022-07-29T01:54:30;23.50;48.20
4840;DHT22;2434;48.486;7.964;2022-07-29T01:57:00;23.50;48.20
4840;DHT22;2434;48.486;7.964;2022-07-29T01:59:30;23.50;48.60
4840;DHT22;2434;48.486;7.964;2022-07-29T02:02:03;23.40;48.50
4840;DHT22;2434;48.486;7.964;2022-07-29T02:04:34;23.40;48.50
4840;DHT22;2434;48.486;7.964;2022-07-29T02:07:05;23.50;48.80
4840;DHT22;2434;48.486;7.964;2022-07-29T02:09:36;23.60;48.10
4840;DHT22;2434;48.486;7.964;2022-07-29T02:12:07;23.40;48.90
4840;DHT22;2434;48.486;7.964;2022-07-29T02:14:40;23.40;49.40
4840;DHT22;2434;48.486;7.964;2022-07-29T02:17:12;23.40;49.10
4840;DHT22;2434;48.486;7.964;2022-07-29T02:19:42;23.50;48.70
4840;DHT22;2434;48.486;7.964;2022-07-29T02:22:12;23.50;48.40
4840;DHT22;2434;48.486;7.964;2022-07-29T02:24:41;23.50;49.20
4840;DHT22;2434;48.486;7.964;2022-07-29T02:27:10;23.50;49.10
4840;DHT22;2434;48.486;7.964;2022-07-29T02:29:40;23.50;48.90
4840;DHT22;2434;48.486;7.964;2022-07-29T02:32:10;23.50;49.00
4840;DHT22;2434;48.486;7.964;2022-07-29T02:34:40;23.50;49.10
4840;DHT22;2434;48.486;7.964;2022-07-29T02:37:10;23.00;50.90
4840;DHT22;2434;48.486;7.964;2022-07-29T02:39:41;23.10;50.80
4840;DHT22;2434;48.486;7.964;2022-07-29T02:42:12;23.10;51.30
4840;DHT22;2434;48.486;7.964;2022-07-29T02:44:41;23.00;51.70
4840;DHT22;2434;48.486;7.964;2022-07-29T02:47:16;23.20;50.90
4840;DHT22;2434;48.486;7.964;2022-07-29T02:49:52;23.30;50.30
4840;DHT22;2434;48.486;7.964;2022-07-29T02:52:26;23.20;50.80
4840;DHT22;2434;48.486;7.964;2022-07-29T02:54:56;23.10;50.80
4840;DHT22;2434;48.486;7.964;2022-07-29T02:57:32;23.20;50.70
4840;DHT22;2434;48.486;7.964;2022-07-29T03:00:21;23.20;50.50
4840;DHT22;2434;48.486;7.964;2022-07-29T03:02:54;23.20;50.30
4840;DHT22;2434;48.486;7.964;2022-07-29T03:05:24;23.20;50.50
4840;DHT22;2434;48.486;7.964;2022-07-29T03:07:58;23.10;50.40
4840;DHT22;2434;48.486;7.964;2022-07-29T03:10:28;23.10;50.60
4840;DHT22;2434;48.486;7.964;2022-07-29T03:12:58;23.10;50.50
4840;DHT22;2434;48.486;7.964;2022-07-29T03:15:27;23.10;50.60
4840;DHT22;2434;48.486;7.964;2022-07-29T03:17:57;23.20;50.60
4840;DHT22;2434;48.486;7.964;2022-07-29T03:20:26;23.20;50.60
4840;DHT22;2434;48.486;7.964;2022-07-29T03:22:55;23.20;50.00
4840;DHT22;2434;48.486;7.964;2022-07-29T03:25:23;22.80;51.60
4840;DHT22;2434;48.486;7.964;2022-07-29T03:27:51;21.90;54.90
4840;DHT22;2434;48.486;7.964;2022-07-29T03:30:20;22.10;54.00
4840;DHT22;2434;48.486;7.964;2022-07-29T03:32:50;22.20;53.40
4840;DHT22;2434;48.486;7.964;2022-07-29T03:35:20;22.20;53.50
4840;DHT22;2434;48.486;7.964;2022-07-29T03:37:49;22.40;52.50
4840;DHT22;2434;48.486;7.964;2022-07-29T03:40:21;22.60;51.80
4840;DHT22;2434;48.486;7.964;2022-07-29T03:42:51;22.60;51.70
4840;DHT22;2434;48.486;7.964;2022-07-29T03:45:22;22.70;51.20
4840;DHT22;2434;48.486;7.964;2022-07-29T03:47:57;22.80;51.00
4840;DHT22;2434;48.486;7.964;2022-07-29T03:50:29;22.80;50.80
4840;DHT22;2434;48.486;7.964;2022-07-29T03:52:59;22.70;50.90
4840;DHT22;2434;48.486;7.964;2022-07-29T03:55:29;22.80;50.60
4840;DHT22;2434;48.486;7.964;2022-07-29T03:58:01;22.40;51.70
4840;DHT22;2434;48.486;7.964;2022-07-29T04:00:30;22.20;52.40
4840;DHT22;2434;48.486;7.964;2022-07-29T04:03:00;22.40;51.70
4840;DHT22;2434;48.486;7.964;2022-07-29T04:05:30;22.40;50.90
4840;DHT22;2434;48.486;7.964;2022-07-29T04:07:58;22.30;51.70
4840;DHT22;2434;48.486;7.964;2022-07-29T04:10:27;22.40;51.70
4840;DHT22;2434;48.486;7.964;2022-07-29T04:13:00;22.40;51.40
4840;DHT22;2434;48.486;7.964;2022-07-29T04:15:28;22.40;52.00
4840;DHT22;2434;48.486;7.964;2022-07-29T04:17:58;22.40;52.00
4840;DHT22;2434;48.486;7.964;2022-07-29T04:20:26;22.40;51.50
4840;DHT22;2434;48.486;7.964;2022-07-29T04:22:56;22.10;52.70
4840;DHT22;2434;48.486;7.964;2022-07-29T04:25:24;21.50;55.70
4840;DHT22;2434;48.486;7.964;2022-07-29T04:27:53;21.80;53.80
4840;DHT22;2434;48.486;7.964;2022-07-29T04:30:31;21.90;53.50
4840;DHT22;2434;48.486;7.964;2022-07-29T04:33:01;22.10;53.10
4840;DHT22;2434;48.486;7.964;2022-07-29T04:35:33;22.10;52.70
4840;DHT22;2434;48.486;7.964;2022-07-29T04:38:06;22.20;52.70
4840;DHT22;2434;48.486;7.964;2022-07-29T04:40:42;22.20;52.80
4840;DHT22;2434;48.486;7.964;2022-07-29T04:43:12;22.20;53.20
4840;DHT22;2434;48.486;7.964;2022-07-29T04:45:41;22.20;53.60
4840;DHT22;2434;48.486;7.964;2022-07-29T04:48:10;22.10;54.20
4840;DHT22;2434;48.486;7.964;2022-07-29T04:50:38;22.10;53.40
4840;DHT22;2434;48.486;7.964;2022-07-29T04:53:08;22.20;53.80
4840;DHT22;2434;48.486;7.964;2022-07-29T04:55:37;22.10;54.00
4840;DHT22;2434;48.486;7.964;2022-07-29T04:58:07;22.20;54.10
4840;DHT22;2434;48.486;7.964;2022-07-29T05:00:36;22.10;53.80
4840;DHT22;2434;48.486;7.964;2022-07-29T05:03:04;22.10;54.60
4840;DHT22;2434;48.486;7.964;2022-07-29T05:05:33;22.10;54.30
4840;DHT22;2434;48.486;7.964;2022-07-29T05:08:01;22.10;54.60
4840;DHT22;2434;48.486;7.964;2022-07-29T05:10:32;22.10;55.10
4840;DHT22;2434;48.486;7.964;2022-07-29T05:13:02;22.10;55.10
4840;DHT22;2434;48.486;7.964;2022-07-29T05:15:30;22.10;55.30
4840;DHT22;2434;48.486;7.964;2022-07-29T05:18:00;21.60;58.10
4840;DHT22;2434;48.486;7.964;2022-07-29T05:20:28;21.60;57.60
4840;DHT22;2434;48.486;7.964;2022-07-29T05:22:58;21.60;58.00
4840;DHT22;2434;48.486;7.964;2022-07-29T05:25:28;21.70;59.60
4840;DHT22;2434;48.486;7.964;2022-07-29T05:28:46;21.90;57.70
4840;DHT22;2434;48.486;7.964;2022-07-29T05:31:14;22.00;57.80
4840;DHT22;2434;48.486;7.964;2022-07-29T05:33:43;22.00;57.70
4840;DHT22;2434;48.486;7.964;2022-07-29T05:36:11;22.10;57.20
4840;DHT22;2434;48.486;7.964;2022-07-29T05:38:39;22.10;56.70
4840;DHT22;2434;48.486;7.964;2022-07-29T05:41:07;21.90;59.40
4840;DHT22;2434;48.486;7.964;2022-07-29T05:43:36;21.30;64.50
4840;DHT22;2434;48.486;7.964;2022-07-29T05:46:06;21.00;68.40
4840;DHT22;2434;48.486;7.964;2022-07-29T05:48:34;20.50;71.30
4840;DHT22;2434;48.486;7.964;2022-07-29T05:51:03;20.30;73.20
4840;DHT22;2434;48.486;7.964;2022-07-29T05:53:31;20.50;73.50
4840;DHT22;2434;48.486;7.964;2022-07-29T05:56:03;20.70;71.30
4840;DHT22;2434;48.486;7.964;2022-07-29T05:58:39;20.50;72.80
4840;DHT22;2434;48.486;7.964;2022-07-29T06:01:08;20.30;73.30
4840;DHT22;2434;48.486;7.964;2022-07-29T06:03:37;20.50;71.40
4840;DHT22;2434;48.486;7.964;2022-07-29T06:06:05;20.70;70.70
4840;DHT22;2434;48.486;7.964;2022-07-29T06:08:34;21.10;68.10
4840;DHT22;2434;48.486;7.964;2022-07-29T06:11:04;21.30;67.10
4840;DHT22;2434;48.486;7.964;2022-07-29T06:13:32;21.60;66.30
4840;DHT22;2434;48.486;7.964;2022-07-29T06:16:00;21.40;67.80
4840;DHT22;2434;48.486;7.964;2022-07-29T06:18:30;21.40;68.20
4840;DHT22;2434;48.486;7.964;2022-07-29T06:20:59;21.10;68.90
4840;DHT22;2434;48.486;7.964;2022-07-29T06:23:28;21.20;69.10
4840;DHT22;2434;48.486;7.964;2022-07-29T06:25:56;21.30;68.30
4840;DHT22;2434;48.486;7.964;2022-07-29T06:28:24;21.60;66.20
4840;DHT22;2434;48.486;7.964;2022-07-29T06:30:53;21.70;65.00
4840;DHT22;2434;48.486;7.964;2022-07-29T06:33:21;21.70;64.50
4840;DHT22;2434;48.486;7.964;2022-07-29T06:35:51;21.90;64.70
4840;DHT22;2434;48.486;7.964;2022-07-29T06:38:21;21.60;65.80
4840;DHT22;2434;48.486;7.964;2022-07-29T06:40:57;21.70;66.00
4840;DHT22;2434;48.486;7.964;2022-07-29T06:43:32;21.90;65.40
4840;DHT22;2434;48.486;7.964;2022-07-29T06:46:17;21.90;65.60
4840;DHT22;2434;48.486;7.964;2022-07-29T06:48:46;21.80;66.30
4840;DHT22;2434;48.486;7.964;2022-07-29T06:51:17;21.50;68.30
4840;DHT22;2434;48.486;7.964;2022-07-29T06:53:49;21.50;67.90
4840;DHT22;2434;48.486;7.964;2022-07-29T06:56:28;21.60;66.40
4840;DHT22;2434;48.486;7.964;2022-07-29T06:58:56;21.80;65.00
4840;DHT22;2434;48.486;7.964;2022-07-29T07:01:27;22.00;64.20
4840;DHT22;2434;48.486;7.964;2022-07-29T07:03:55;21.90;63.70
4840;DHT22;2434;48.486;7.964;2022-07-29T07:06:26;21.90;63.50
4840;DHT22;2434;48.486;7.964;2022-07-29T07:08:54;22.10;63.10
4840;DHT22;2434;48.486;7.964;2022-07-29T07:11:22;22.20;63.60
4840;DHT22;2434;48.486;7.964;2022-07-29T07:13:51;22.20;61.60
4840;DHT22;2434;48.486;7.964;2022-07-29T07:16:19;22.30;61.10
4840;DHT22;2434;48.486;7.964;2022-07-29T07:18:47;22.10;61.10
4840;DHT22;2434;48.486;7.964;2022-07-29T07:21:16;22.20;61.30
4840;DHT22;2434;48.486;7.964;2022-07-29T07:23:46;22.20;60.70
4840;DHT22;2434;48.486;7.964;2022-07-29T07:26:15;22.40;60.50
4840;DHT22;2434;48.486;7.964;2022-07-29T07:28:43;22.40;61.10
4840;DHT22;2434;48.486;7.964;2022-07-29T07:31:11;22.50;58.90
4840;DHT22;2434;48.486;7.964;2022-07-29T07:33:41;22.60;55.10
4840;DHT22;2434;48.486;7.964;2022-07-29T07:36:09;22.50;52.20
4840;DHT22;2434;48.486;7.964;2022-07-29T07:38:38;22.60;53.70
4840;DHT22;2434;48.486;7.964;2022-07-29T07:41:08;22.60;53.00
4840;DHT22;2434;48.486;7.964;2022-07-29T07:43:36;22.60;52.60
4840;DHT22;2434;48.486;7.964;2022-07-29T07:46:04;22.70;51.40
4840;DHT22;2434;48.486;7.964;2022-07-29T07:48:33;22.60;51.60
4840;DHT22;2434;48.486;7.964;2022-07-29T07:51:02;22.60;50.30
4840;DHT22;2434;48.486;7.964;2022-07-29T07:53:31;22.60;51.10
4840;DHT22;2434;48.486;7.964;2022-07-29T07:56:00;22.60;52.50
4840;DHT22;2434;48.486;7.964;2022-07-29T07:58:39;22.60;51.90
4840;DHT22;2434;48.486;7.964;2022-07-29T08:01:08;22.70;52.50
4840;DHT22;2434;48.486;7.964;2022-07-29T08:03:37;22.70;54.00
4840;DHT22;2434;48.486;7.964;2022-07-29T08:06:06;22.80;53.20
4840;DHT22;2434;48.486;7.964;2022-07-29T08:08:34;22.80;53.00
4840;DHT22;2434;48.486;7.964;2022-07-29T08:11:03;22.90;53.00
4840;DHT22;2434;48.486;7.964;2022-07-29T08:13:36;22.90;51.90
4840;DHT22;2434;48.486;7.964;2022-07-29T08:16:07;23.00;51.70
4840;DHT22;2434;48.486;7.964;2022-07-29T08:18:43;23.00;52.50
4840;DHT22;2434;48.486;7.964;2022-07-29T08:21:13;23.00;51.10
4840;DHT22;2434;48.486;7.964;2022-07-29T08:23:42;23.00;50.60
4840;DHT22;2434;48.486;7.964;2022-07-29T08:26:27;23.10;52.00
4840;DHT22;2434;48.486;7.964;2022-07-29T08:28:55;23.10;51.50
4840;DHT22;2434;48.486;7.964;2022-07-29T08:31:25;23.20;50.10
4840;DHT22;2434;48.486;7.964;2022-07-29T08:33:54;23.20;50.50
4840;DHT22;2434;48.486;7.964;2022-07-29T08:36:23;23.30;46.70
4840;DHT22;2434;48.486;7.964;2022-07-29T08:38:51;23.40;46.60
4840;DHT22;2434;48.486;7.964;2022-07-29T08:41:20;23.40;45.60
4840;DHT22;2434;48.486;7.964;2022-07-29T08:43:49;23.40;43.90
4840;DHT22;2434;48.486;7.964;2022-07-29T08:46:18;23.50;43.80
4840;DHT22;2434;48.486;7.964;2022-07-29T08:48:48;23.60;44.20
4840;DHT22;2434;48.486;7.964;2022-07-29T08:51:19;23.80;44.30
4840;DHT22;2434;48.486;7.964;2022-07-29T08:53:48;24.00;42.80
4840;DHT22;2434;48.486;7.964;2022-07-29T08:56:18;24.00;41.90
4840;DHT22;2434;48.486;7.964;2022-07-29T08:58:48;23.90;40.70
4840;DHT22;2434;48.486;7.964;2022-07-29T09:01:22;24.00;42.80
4840;DHT22;2434;48.486;7.964;2022-07-29T09:04:07;24.10;43.60
4840;DHT22;2434;48.486;7.964;2022-07-29T09:06:42;24.00;42.80
4840;DHT22;2434;48.486;7.964;2022-07-29T09:09:11;24.10;41.80
4840;DHT22;2434;48.486;7.964;2022-07-29T09:11:40;24.10;42.60
4840;DHT22;2434;48.486;7.964;2022-07-29T09:14:11;23.90;42.20
4840;DHT22;2434;48.486;7.964;2022-07-29T09:16:48;24.00;42.30
4840;DHT22;2434;48.486;7.964;2022-07-29T09:22:40;24.10;42.00
4840;DHT22;2434;48.486;7.964;2022-07-29T09:25:10;24.20;43.00
4840;DHT22;2434;48.486;7.964;2022-07-29T09:27:39;24.20;42.10
4840;DHT22;2434;48.486;7.964;2022-07-29T09:33:32;24.50;41.00
4840;DHT22;2434;48.486;7.964;2022-07-29T09:36:04;24.30;40.30
4840;DHT22;2434;48.486;7.964;2022-07-29T09:38:34;24.20;35.90
4840;DHT22;2434;48.486;7.964;2022-07-29T09:41:04;24.20;37.00
4840;DHT22;2434;48.486;7.964;2022-07-29T09:43:34;24.30;37.20
4840;DHT22;2434;48.486;7.964;2022-07-29T09:46:10;24.40;38.10
4840;DHT22;2434;48.486;7.964;2022-07-29T09:48:39;24.40;40.70
4840;DHT22;2434;48.486;7.964;2022-07-29T09:51:17;24.50;37.30
4840;DHT22;2434;48.486;7.964;2022-07-29T09:53:51;24.60;37.20
4840;DHT22;2434;48.486;7.964;2022-07-29T09:56:19;24.80;39.90
4840;DHT22;2434;48.486;7.964;2022-07-29T10:01:50;25.20;37.00
4840;DHT22;2434;48.486;7.964;2022-07-29T10:04:19;24.80;35.30
4840;DHT22;2434;48.486;7.964;2022-07-29T10:06:58;24.70;36.60
4840;DHT22;2434;48.486;7.964;2022-07-29T10:09:32;24.70;37.40
4840;DHT22;2434;48.486;7.964;2022-07-29T10:12:09;24.80;35.50
4840;DHT22;2434;48.486;7.964;2022-07-29T10:14:37;24.80;36.30
4840;DHT22;2434;48.486;7.964;2022-07-29T10:17:08;25.00;35.80
4840;DHT22;2434;48.486;7.964;2022-07-29T10:19:37;24.90;36.40
4840;DHT22;2434;48.486;7.964;2022-07-29T10:22:07;25.00;35.70
4840;DHT22;2434;48.486;7.964;2022-07-29T10:24:37;25.00;36.60
4840;DHT22;2434;48.486;7.964;2022-07-29T10:27:07;25.00;38.10
4840;DHT22;2434;48.486;7.964;2022-07-29T10:29:36;25.10;38.40
4840;DHT22;2434;48.486;7.964;2022-07-29T10:32:29;25.20;35.80
4840;DHT22;2434;48.486;7.964;2022-07-29T10:35:18;25.40;35.60
4840;DHT22;2434;48.486;7.964;2022-07-29T10:41:00;25.50;34.40
4840;DHT22;2434;48.486;7.964;2022-07-29T10:43:51;25.40;34.30
4840;DHT22;2434;48.486;7.964;2022-07-29T10:46:20;25.50;34.40
4840;DHT22;2434;48.486;7.964;2022-07-29T10:49:11;25.60;34.50
4840;DHT22;2434;48.486;7.964;2022-07-29T10:51:52;25.60;34.60
4840;DHT22;2434;48.486;7.964;2022-07-29T10:54:37;25.50;34.10
4840;DHT22;2434;48.486;7.964;2022-07-29T10:57:15;25.40;34.10
4840;DHT22;2434;48.486;7.964;2022-07-29T10:59:47;25.50;33.60
4840;DHT22;2434;48.486;7.964;2022-07-29T11:02:41;25.80;33.70
4840;DHT22;2434;48.486;7.964;2022-07-29T11:05:12;26.00;32.60
4840;DHT22;2434;48.486;7.964;2022-07-29T11:14:05;26.50;30.60
4840;DHT22;2434;48.486;7.964;2022-07-29T11:16:58;26.30;31.30
4840;DHT22;2434;48.486;7.964;2022-07-29T11:19:32;26.30;32.30
4840;DHT22;2434;48.486;7.964;2022-07-29T11:22:01;26.20;29.90
4840;DHT22;2434;48.486;7.964;2022-07-29T11:24:31;26.20;31.40
4840;DHT22;2434;48.486;7.964;2022-07-29T11:27:12;26.20;30.90
4840;DHT22;2434;48.486;7.964;2022-07-29T11:29:54;26.20;30.80
4840;DHT22;2434;48.486;7.964;2022-07-29T11:32:36;26.30;32.10
4840;DHT22;2434;48.486;7.964;2022-07-29T11:35:14;26.40;30.90
4840;DHT22;2434;48.486;7.964;2022-07-29T11:37:45;26.30;29.20
4840;DHT22;2434;48.486;7.964;2022-07-29T11:40:21;26.30;28.40
4840;DHT22;2434;48.486;7.964;2022-07-29T11:42:50;26.30;26.90
4840;DHT22;2434;48.486;7.964;2022-07-29T11:45:25;26.40;28.60
4840;DHT22;2434;48.486;7.964;2022-07-29T11:48:16;26.30;27.60
4840;DHT22;2434;48.486;7.964;2022-07-29T11:50:59;26.20;29.20
4840;DHT22;2434;48.486;7.964;2022-07-29T11:53:29;26.30;29.00
4840;DHT22;2434;48.486;7.964;2022-07-29T11:55:59;26.30;29.10
4840;DHT22;2434;48.486;7.964;2022-07-29T11:58:29;26.40;30.10
4840;DHT22;2434;48.486;7.964;2022-07-29T12:01:00;26.50;28.50
4840;DHT22;2434;48.486;7.964;2022-07-29T12:03:31;26.60;29.00
4840;DHT22;2434;48.486;7.964;2022-07-29T12:06:04;26.40;28.60
4840;DHT22;2434;48.486;7.964;2022-07-29T12:08:41;26.40;29.90
4840;DHT22;2434;48.486;7.964;2022-07-29T12:11:18;26.50;30.30
4840;DHT22;2434;48.486;7.964;2022-07-29T12:13:49;26.50;30.40
4840;DHT22;2434;48.486;7.964;2022-07-29T12:16:20;26.60;29.80
4840;DHT22;2434;48.486;7.964;2022-07-29T12:18:59;26.60;30.00
4840;DHT22;2434;48.486;7.964;2022-07-29T12:21:33;26.70;30.00
4840;DHT22;2434;48.486;7.964;2022-07-29T12:24:18;26.50;30.30
4840;DHT22;2434;48.486;7.964;2022-07-29T12:26:55;26.40;29.10
4840;DHT22;2434;48.486;7.964;2022-07-29T12:29:24;26.40;29.70
4840;DHT22;2434;48.486;7.964;2022-07-29T12:32:03;26.50;30.70
4840;DHT22;2434;48.486;7.964;2022-07-29T12:34:45;26.50;29.70
4840;DHT22;2434;48.486;7.964;2022-07-29T12:37:13;26.40;29.60
4840;DHT22;2434;48.486;7.964;2022-07-29T12:39:42;26.40;29.20
4840;DHT22;2434;48.486;7.964;2022-07-29T12:42:11;26.40;29.70
4840;DHT22;2434;48.486;7.964;2022-07-29T12:44:45;26.60;29.10
4840;DHT22;2434;48.486;7.964;2022-07-29T12:47:17;26.40;29.50
4840;DHT22;2434;48.486;7.964;2022-07-29T12:49:47;26.40;30.30
4840;DHT22;2434;48.486;7.964;2022-07-29T12:52:27;26.40;30.50
4840;DHT22;2434;48.486;7.964;2022-07-29T12:54:55;26.40;30.50
4840;DHT22;2434;48.486;7.964;2022-07-29T12:57:24;26.50;29.00
4840;DHT22;2434;48.486;7.964;2022-07-29T13:00:05;26.40;30.10
4840;DHT22;2434;48.486;7.964;2022-07-29T13:02:39;26.40;30.60
4840;DHT22;2434;48.486;7.964;2022-07-29T13:05:09;26.40;30.50
4840;DHT22;2434;48.486;7.964;2022-07-29T13:07:39;26.40;29.80
4840;DHT22;2434;48.486;7.964;2022-07-29T13:10:22;26.50;30.20
4840;DHT22;2434;48.486;7.964;2022-07-29T13:13:02;26.50;30.40
4840;DHT22;2434;48.486;7.964;2022-07-29T13:15:31;26.60;30.20
4840;DHT22;2434;48.486;7.964;2022-07-29T13:18:02;26.70;29.70
4840;DHT22;2434;48.486;7.964;2022-07-29T13:20:31;26.70;29.00
4840;DHT22;2434;48.486;7.964;2022-07-29T13:23:00;26.70;29.60
4840;DHT22;2434;48.486;7.964;2022-07-29T13:25:30;26.70;28.60
4840;DHT22;2434;48.486;7.964;2022-07-29T13:28:00;26.70;27.90
4840;DHT22;2434;48.486;7.964;2022-07-29T13:30:28;26.70;27.80
4840;DHT22;2434;48.486;7.964;2022-07-29T13:32:57;26.70;28.10
4840;DHT22;2434;48.486;7.964;2022-07-29T13:35:27;26.70;29.40
4840;DHT22;2434;48.486;7.964;2022-07-29T13:37:56;26.70;27.80
4840;DHT22;2434;48.486;7.964;2022-07-29T13:40:24;26.70;29.00
4840;DHT22;2434;48.486;7.964;2022-07-29T13:42:53;26.70;27.30
4840;DHT22;2434;48.486;7.964;2022-07-29T13:45:22;26.70;28.60
4840;DHT22;2434;48.486;7.964;2022-07-29T13:47:54;26.60;27.40
4840;DHT22;2434;48.486;7.964;2022-07-29T13:50:23;26.50;28.30
4840;DHT22;2434;48.486;7.964;2022-07-29T13:52:53;26.60;29.30
4840;DHT22;2434;48.486;7.964;2022-07-29T13:55:21;26.60;30.70
4840;DHT22;2434;48.486;7.964;2022-07-29T13:57:49;26.60;27.80
4840;DHT22;2434;48.486;7.964;2022-07-29T14:00:18;26.60;28.00
4840;DHT22;2434;48.486;7.964;2022-07-29T14:02:46;26.60;27.40
4840;DHT22;2434;48.486;7.964;2022-07-29T14:05:14;26.60;28.10
4840;DHT22;2434;48.486;7.964;2022-07-29T14:07:43;26.60;28.20
4840;DHT22;2434;48.486;7.964;2022-07-29T14:10:13;26.50;26.50
4840;DHT22;2434;48.486;7.964;2022-07-29T14:12:45;26.60;28.60
4840;DHT22;2434;48.486;7.964;2022-07-29T14:15:14;26.60;28.00
4840;DHT22;2434;48.486;7.964;2022-07-29T14:17:42;26.50;28.60
4840;DHT22;2434;48.486;7.964;2022-07-29T14:20:11;26.70;28.60
4840;DHT22;2434;48.486;7.964;2022-07-29T14:22:39;26.80;28.10
4840;DHT22;2434;48.486;7.964;2022-07-29T14:25:10;26.70;26.80
4840;DHT22;2434;48.486;7.964;2022-07-29T14:27:43;26.80;27.50
4840;DHT22;2434;48.486;7.964;2022-07-29T14:30:12;26.80;28.10
4840;DHT22;2434;48.486;7.964;2022-07-29T14:32:40;26.80;27.90
4840;DHT22;2434;48.486;7.964;2022-07-29T14:35:09;26.90;29.00
4840;DHT22;2434;48.486;7.964;2022-07-29T14:37:38;27.00;27.40
4840;DHT22;2434;48.486;7.964;2022-07-29T14:40:08;27.00;25.90
4840;DHT22;2434;48.486;7.964;2022-07-29T14:42:36;27.10;27.40
4840;DHT22;2434;48.486;7.964;2022-07-29T14:45:08;27.10;26.40
4840;DHT22;2434;48.486;7.964;2022-07-29T14:47:37;27.00;23.70
4840;DHT22;2434;48.486;7.964;2022-07-29T14:50:07;27.00;25.10
4840;DHT22;2434;48.486;7.964;2022-07-29T14:52:35;27.00;23.60
4840;DHT22;2434;48.486;7.964;2022-07-29T14:55:04;26.90;22.30
4840;DHT22;2434;48.486;7.964;2022-07-29T14:57:46;26.90;21.50
4840;DHT22;2434;48.486;7.964;2022-07-29T15:00:17;26.80;20.40
4840;DHT22;2434;48.486;7.964;2022-07-29T15:02:45;26.90;22.60
4840;DHT22;2434;48.486;7.964;2022-07-29T15:05:29;26.90;23.90
4840;DHT22;2434;48.486;7.964;2022-07-29T15:07:58;26.90;23.40
4840;DHT22;2434;48.486;7.964;2022-07-29T15:10:27;27.10;24.40
4840;DHT22;2434;48.486;7.964;2022-07-29T15:12:56;27.20;23.90
4840;DHT22;2434;48.486;7.964;2022-07-29T15:15:26;27.10;23.20
4840;DHT22;2434;48.486;7.964;2022-07-29T15:17:54;27.10;22.30
4840;DHT22;2434;48.486;7.964;2022-07-29T15:20:23;27.00;22.80
4840;DHT22;2434;48.486;7.964;2022-07-29T15:22:54;27.10;25.30
4840;DHT22;2434;48.486;7.964;2022-07-29T15:25:23;27.10;24.70
4840;DHT22;2434;48.486;7.964;2022-07-29T15:27:54;27.10;23.60
4840;DHT22;2434;48.486;7.964;2022-07-29T15:30:29;27.10;24.30
4840;DHT22;2434;48.486;7.964;2022-07-29T15:33:00;27.20;24.30
4840;DHT22;2434;48.486;7.964;2022-07-29T15:35:29;27.00;24.60
4840;DHT22;2434;48.486;7.964;2022-07-29T15:37:58;27.10;23.60
4840;DHT22;2434;48.486;7.964;2022-07-29T15:40:26;27.20;23.70
4840;DHT22;2434;48.486;7.964;2022-07-29T15:42:56;26.90;23.10
4840;DHT22;2434;48.486;7.964;2022-07-29T15:45:28;27.00;24.20
4840;DHT22;2434;48.486;7.964;2022-07-29T15:47:58;27.00;23.50
4840;DHT22;2434;48.486;7.964;2022-07-29T15:50:26;27.00;24.60
4840;DHT22;2434;48.486;7.964;2022-07-29T15:52:55;27.00;25.00
4840;DHT22;2434;48.486;7.964;2022-07-29T15:55:23;27.10;25.40
4840;DHT22;2434;48.486;7.964;2022-07-29T15:57:52;27.10;26.00
4840;DHT22;2434;48.486;7.964;2022-07-29T16:00:27;27.20;26.50
4840;DHT22;2434;48.486;7.964;2022-07-29T16:02:55;27.10;25.60
4840;DHT22;2434;48.486;7.964;2022-07-29T16:05:24;27.20;26.20
4840;DHT22;2434;48.486;7.964;2022-07-29T16:07:55;27.30;25.10
4840;DHT22;2434;48.486;7.964;2022-07-29T16:10:26;27.20;26.30
4840;DHT22;2434;48.486;7.964;2022-07-29T16:12:54;27.20;27.10
4840;DHT22;2434;48.486;7.964;2022-07-29T16:15:23;27.10;27.80
4840;DHT22;2434;48.486;7.964;2022-07-29T16:17:52;26.90;27.00
4840;DHT22;2434;48.486;7.964;2022-07-29T16:20:21;27.00;26.80
4840;DHT22;2434;48.486;7.964;2022-07-29T16:22:49;27.10;26.50
4840;DHT22;2434;48.486;7.964;2022-07-29T16:25:18;27.10;27.30
4840;DHT22;2434;48.486;7.964;2022-07-29T16:27:46;27.10;27.90
4840;DHT22;2434;48.486;7.964;2022-07-29T16:30:15;27.00;28.70
4840;DHT22;2434;48.486;7.964;2022-07-29T16:32:43;27.00;28.80
4840;DHT22;2434;48.486;7.964;2022-07-29T16:35:13;27.10;27.40
4840;DHT22;2434;48.486;7.964;2022-07-29T16:37:41;27.20;26.50
4840;DHT22;2434;48.486;7.964;2022-07-29T16:40:10;27.20;26.70
4840;DHT22;2434;48.486;7.964;2022-07-29T16:42:38;27.30;28.00
4840;DHT22;2434;48.486;7.964;2022-07-29T16:45:13;27.20;23.90
4840;DHT22;2434;48.486;7.964;2022-07-29T16:47:41;27.20;25.50
4840;DHT22;2434;48.486;7.964;2022-07-29T16:50:10;27.10;25.80
4840;DHT22;2434;48.486;7.964;2022-07-29T16:52:39;27.10;25.70
4840;DHT22;2434;48.486;7.964;2022-07-29T16:55:08;27.20;26.70